Time;durP1;ratioP1;P1;durP2;ratioP2;P2;SDS_P1;SDS_P2;PMS_P1;PMS_P2;Temp;Humidity;BMP_temperature;BMP_pressure;BME280_temperature;BME280_humidity;BME280_pressure;Samples;Min_cycle;Max_cycle;Signal;HPM_P1;HPM_P2
2020/12/26 00:01:50;;;;;;;19.00;12.48;;;5.30;99.90;;;;;;5012867;28;20479;-66
2020/12/26 00:04:17;;;;;;;25.63;12.45;;;5.30;99.90;;;;;;4993743;28;20073;-66
2020/12/26 00:06:43;;;;;;;18.20;11.88;;;5.30;99.90;;;;;;4993298;28;20089;-66
2020/12/26 00:09:10;;;;;;;18.58;12.70;;;5.30;99.90;;;;;;4993311;28;20476;-66
2020/12/26 00:11:37;;;;;;;17.27;11.90;;;5.30;99.90;;;;;;4993629;28;20054;-66
2020/12/26 00:14:03;;;;;;;19.48;12.68;;;5.30;99.90;;;;;;5011091;28;20069;-66
2020/12/26 00:16:31;;;;;;;21.77;13.27;;;5.30;99.90;;;;;;5013089;28;20510;-66
2020/12/26 00:18:57;;;;;;;20.75;12.82;;;5.20;99.90;;;;;;5012935;28;20100;-66
2020/12/26 00:21:24;;;;;;;18.38;11.98;;;5.30;99.90;;;;;;5013108;28;20049;-66
2020/12/26 00:23:50;;;;;;;22.17;12.52;;;5.40;99.90;;;;;;5012164;28;20077;-66
2020/12/26 00:26:18;;;;;;;20.98;12.18;;;5.40;99.90;;;;;;5013177;28;20474;-66
2020/12/26 00:28:45;;;;;;;17.65;11.63;;;5.50;99.90;;;;;;5012791;28;20081;-66
2020/12/26 00:31:13;;;;;;;18.13;12.65;;;5.40;99.90;;;;;;5012878;28;20054;-66
2020/12/26 00:33:41;;;;;;;16.05;11.30;;;5.40;99.90;;;;;;5012707;28;20116;-66
2020/12/26 00:36:08;;;;;;;17.77;12.85;;;5.40;99.90;;;;;;5013009;28;20050;-66
2020/12/26 00:38:34;;;;;;;19.50;12.98;;;5.40;99.90;;;;;;5012659;28;20426;-66
2020/12/26 00:41:01;;;;;;;17.67;12.93;;;5.40;99.90;;;;;;5012648;28;20065;-66
2020/12/26 00:43:28;;;;;;;18.08;14.30;;;5.30;99.90;;;;;;5012504;28;20073;-66
2020/12/26 00:45:54;;;;;;;20.83;14.27;;;5.20;99.90;;;;;;5012767;28;20082;-66
2020/12/26 00:48:21;;;;;;;22.35;14.50;;;5.30;99.90;;;;;;5012670;28;20530;-66
2020/12/26 00:50:48;;;;;;;21.45;14.70;;;5.20;99.90;;;;;;5012676;28;20050;-66
2020/12/26 00:53:15;;;;;;;24.58;15.70;;;5.30;99.90;;;;;;5012849;28;20057;-66
2020/12/26 00:55:41;;;;;;;20.02;15.35;;;5.20;99.90;;;;;;5012569;28;20451;-66
2020/12/26 00:58:08;;;;;;;23.80;16.80;;;5.10;99.90;;;;;;5012569;28;20077;-66
2020/12/26 01:00:34;;;;;;;25.67;16.45;;;5.10;99.90;;;;;;5012876;28;20057;-66
2020/12/26 01:03:01;;;;;;;24.98;16.02;;;5.20;99.90;;;;;;5012685;28;20057;-66
2020/12/26 01:05:27;;;;;;;26.52;16.55;;;5.10;99.90;;;;;;5015708;28;20499;-66
2020/12/26 01:07:55;;;;;;;23.40;15.77;;;5.10;99.90;;;;;;5016590;28;20096;-66
2020/12/26 01:10:21;;;;;;;23.70;16.08;;;5.00;99.90;;;;;;5017106;28;20085;-66
2020/12/26 01:12:49;;;;;;;24.98;15.95;;;5.10;99.90;;;;;;5016957;28;20093;-66
2020/12/26 01:15:19;;;;;;;26.33;16.98;;;5.00;99.90;;;;;;5016018;28;20053;-66
2020/12/26 01:17:47;;;;;;;28.33;17.63;;;5.00;99.90;;;;;;5016181;28;20261;-66
2020/12/26 01:20:14;;;;;;;29.58;18.48;;;4.90;99.90;;;;;;5016298;28;20058;-66
2020/12/26 01:22:41;;;;;;;27.92;18.52;;;4.80;99.90;;;;;;5016634;28;20172;-66
2020/12/26 01:25:08;;;;;;;30.38;18.42;;;4.70;99.90;;;;;;5015803;28;20085;-66
2020/12/26 01:27:35;;;;;;;29.27;18.40;;;4.60;99.90;;;;;;5016330;28;20479;-66
2020/12/26 01:30:02;;;;;;;33.03;19.50;;;4.60;99.90;;;;;;5016028;28;20469;-66
2020/12/26 01:32:28;;;;;;;33.35;20.40;;;4.50;99.90;;;;;;5015677;28;20491;-66
2020/12/26 01:34:55;;;;;;;33.17;20.27;;;4.40;99.90;;;;;;5015494;28;20498;-66
2020/12/26 01:37:22;;;;;;;32.20;20.40;;;4.60;99.90;;;;;;5015251;28;20081;-66
2020/12/26 01:39:48;;;;;;;33.72;20.80;;;4.60;99.90;;;;;;5015593;28;20049;-66
2020/12/26 01:42:16;;;;;;;34.60;21.60;;;4.60;99.90;;;;;;5015467;28;20057;-66
2020/12/26 01:44:43;;;;;;;31.95;20.52;;;4.60;99.90;;;;;;5015559;28;20079;-66
2020/12/26 01:47:10;;;;;;;35.83;21.15;;;4.70;99.90;;;;;;5014855;28;20042;-66
2020/12/26 01:49:36;;;;;;;34.05;21.63;;;4.70;99.90;;;;;;5015205;28;20046;-66
2020/12/26 01:52:04;;;;;;;37.92;21.70;;;4.80;99.90;;;;;;5015521;28;20054;-66
2020/12/26 01:54:30;;;;;;;34.72;23.70;;;4.70;99.90;;;;;;5014916;28;20058;-66
2020/12/26 01:56:58;;;;;;;37.58;20.95;;;4.80;99.90;;;;;;5014959;28;20046;-66
2020/12/26 01:59:26;;;;;;;32.53;20.67;;;4.70;99.90;;;;;;5015265;28;20046;-66
2020/12/26 02:01:52;;;;;;;36.28;20.65;;;4.60;99.90;;;;;;5015640;28;20458;-66
2020/12/26 02:04:19;;;;;;;33.17;22.10;;;4.60;99.90;;;;;;5015034;28;20455;-66
2020/12/26 02:06:50;;;;;;;37.33;20.67;;;4.60;99.90;;;;;;5015148;28;20050;-66
2020/12/26 02:09:17;;;;;;;40.78;22.38;;;4.60;99.90;;;;;;5015193;28;20188;-66
2020/12/26 02:11:44;;;;;;;36.95;23.30;;;4.60;99.90;;;;;;5014978;28;20053;-66
2020/12/26 02:14:11;;;;;;;33.90;21.00;;;4.70;99.90;;;;;;5014952;28;20046;-66
2020/12/26 02:16:45;;;;;;;39.47;22.20;;;4.70;99.90;;;;;;5014816;28;20085;-66
2020/12/26 02:19:13;;;;;;;39.10;23.00;;;4.60;99.90;;;;;;5014741;28;20060;-66
2020/12/26 02:21:40;;;;;;;39.05;21.50;;;4.60;99.90;;;;;;5014948;28;20518;-66
2020/12/26 02:24:07;;;;;;;41.58;21.77;;;4.60;99.90;;;;;;5014265;28;20085;-66
2020/12/26 02:26:37;;;;;;;39.40;23.88;;;4.40;99.90;;;;;;5014723;28;20200;-66
2020/12/26 02:29:04;;;;;;;42.38;22.58;;;4.50;99.90;;;;;;5014930;28;20050;-66
2020/12/26 02:31:30;;;;;;;36.58;21.38;;;4.50;99.90;;;;;;5014752;28;20053;-66
2020/12/26 02:33:57;;;;;;;34.13;20.23;;;4.60;99.90;;;;;;5014372;28;20041;-66
2020/12/26 02:36:24;;;;;;;32.13;19.67;;;4.60;99.90;;;;;;5014719;28;20057;-66
2020/12/26 02:38:50;;;;;;;31.88;18.85;;;4.60;99.90;;;;;;5014248;28;20085;-66
2020/12/26 02:41:18;;;;;;;36.63;20.55;;;4.60;99.90;;;;;;5013909;28;20097;-66
2020/12/26 02:43:44;;;;;;;32.13;18.35;;;4.60;99.90;;;;;;5014003;28;20046;-66
2020/12/26 02:46:11;;;;;;;30.83;18.75;;;4.60;99.90;;;;;;5014361;28;20085;-66
2020/12/26 02:48:37;;;;;;;27.40;16.98;;;4.60;99.90;;;;;;5014194;28;20471;-66
2020/12/26 02:51:04;;;;;;;28.45;16.50;;;4.60;99.90;;;;;;5014229;28;20085;-66
2020/12/26 02:53:31;;;;;;;28.65;16.65;;;4.60;99.90;;;;;;5014133;28;20060;-66
2020/12/26 02:55:57;;;;;;;31.58;17.60;;;4.60;99.90;;;;;;5013485;28;20049;-66
2020/12/26 02:58:25;;;;;;;28.88;17.30;;;4.70;99.90;;;;;;5014211;28;20050;-66
2020/12/26 03:00:51;;;;;;;25.92;15.48;;;4.60;99.90;;;;;;5014387;28;20081;-66
2020/12/26 03:03:18;;;;;;;26.88;16.52;;;4.60;99.90;;;;;;5013534;28;20553;-66
2020/12/26 03:05:44;;;;;;;25.23;16.15;;;4.70;99.90;;;;;;5014258;28;20103;-66
2020/12/26 03:08:11;;;;;;;24.38;15.60;;;4.50;99.90;;;;;;5014024;28;20058;-66
2020/12/26 03:10:37;;;;;;;24.25;14.82;;;4.50;99.90;;;;;;5013688;28;20069;-66
2020/12/26 03:13:04;;;;;;;25.90;14.90;;;4.50;99.90;;;;;;5013950;28;20175;-66
2020/12/26 03:15:31;;;;;;;24.55;15.02;;;4.40;99.90;;;;;;5013745;28;20096;-66
2020/12/26 03:17:58;;;;;;;23.60;13.15;;;4.50;99.90;;;;;;5013901;28;20131;-66
2020/12/26 03:20:24;;;;;;;24.10;13.35;;;4.40;99.90;;;;;;5013727;28;20088;-66
2020/12/26 03:22:51;;;;;;;24.65;14.48;;;4.40;99.90;;;;;;5014154;28;20069;-66
2020/12/26 03:25:19;;;;;;;23.73;14.25;;;4.50;99.90;;;;;;5013835;28;20089;-66
2020/12/26 03:27:48;;;;;;;25.42;15.30;;;4.50;99.90;;;;;;5012853;28;20041;-66
2020/12/26 03:30:15;;;;;;;25.13;14.50;;;4.50;99.90;;;;;;5013760;28;20418;-66
2020/12/26 03:32:42;;;;;;;20.77;12.60;;;4.50;99.90;;;;;;5013686;28;20125;-66
2020/12/26 03:35:09;;;;;;;27.20;15.15;;;4.50;99.90;;;;;;5013254;28;20050;-66
2020/12/26 03:37:36;;;;;;;26.45;14.73;;;4.50;99.90;;;;;;5013309;28;20085;-66
2020/12/26 03:40:04;;;;;;;27.45;15.30;;;4.40;99.90;;;;;;5013783;28;20053;-66
2020/12/26 03:42:30;;;;;;;26.67;16.05;;;4.40;99.90;;;;;;5013130;28;20529;-66
2020/12/26 03:44:57;;;;;;;23.77;14.40;;;4.40;99.90;;;;;;5013196;28;20049;-65
2020/12/26 03:47:23;;;;;;;28.30;14.88;;;4.40;99.90;;;;;;5013358;28;20137;-66
2020/12/26 03:49:51;;;;;;;26.23;15.43;;;4.40;99.90;;;;;;5013697;28;20529;-66
2020/12/26 03:52:17;;;;;;;23.88;13.40;;;4.30;99.90;;;;;;5013220;28;20104;-66
2020/12/26 03:54:46;;;;;;;27.80;15.68;;;4.30;99.90;;;;;;5013123;28;20049;-66
2020/12/26 03:57:14;;;;;;;27.60;15.90;;;4.30;99.90;;;;;;5013463;28;20466;-66
2020/12/26 03:59:40;;;;;;;24.75;16.20;;;4.40;99.90;;;;;;5014059;28;20049;-66
2020/12/26 04:02:07;;;;;;;26.85;16.38;;;4.40;99.90;;;;;;5013116;28;20050;-66
2020/12/26 04:04:33;;;;;;;29.02;16.52;;;4.40;99.90;;;;;;5012898;28;20077;-66
2020/12/26 04:07:01;;;;;;;34.13;17.15;;;4.50;99.90;;;;;;5013437;28;20081;-66
2020/12/26 04:09:27;;;;;;;26.50;15.93;;;4.50;99.90;;;;;;5013657;28;20499;-66
2020/12/26 04:11:54;;;;;;;26.73;16.63;;;4.50;99.90;;;;;;5013272;28;20085;-66
2020/12/26 04:14:21;;;;;;;26.92;15.38;;;4.50;99.90;;;;;;5013101;28;20046;-66
2020/12/26 04:16:47;;;;;;;20.60;12.90;;;4.30;99.90;;;;;;5013273;28;20050;-66
2020/12/26 04:19:14;;;;;;;20.23;13.20;;;4.40;99.90;;;;;;5013316;28;20056;-66
2020/12/26 04:21:40;;;;;;;19.95;12.32;;;4.40;99.90;;;;;;5013173;28;20085;-66
2020/12/26 04:24:08;;;;;;;19.75;11.98;;;4.40;99.90;;;;;;5012244;28;20057;-65
2020/12/26 04:26:34;;;;;;;20.63;11.95;;;4.50;99.90;;;;;;5013207;28;20443;-66
2020/12/26 04:29:05;;;;;;;18.13;12.32;;;4.10;99.90;;;;;;5013023;28;20085;-66
2020/12/26 04:31:32;;;;;;;18.83;11.55;;;4.10;99.90;;;;;;5013027;28;20049;-66
2020/12/26 04:33:59;;;;;;;24.13;12.98;;;4.20;99.90;;;;;;5012531;28;20052;-66
2020/12/26 04:36:25;;;;;;;16.35;11.20;;;4.30;99.90;;;;;;5012349;28;20092;-66
2020/12/26 04:38:52;;;;;;;16.85;11.20;;;4.20;99.90;;;;;;5014306;28;20081;-66
2020/12/26 04:41:26;;;;;;;16.73;10.60;;;4.20;99.90;;;;;;5016516;28;20057;-66
2020/12/26 04:43:55;;;;;;;15.07;9.43;;;4.20;99.90;;;;;;5016770;28;20058;-66
2020/12/26 04:46:27;;;;;;;16.60;9.65;;;4.20;99.90;;;;;;5016465;28;20082;-66
2020/12/26 04:49:03;;;;;;;17.30;10.38;;;4.00;99.90;;;;;;5016412;28;20053;-66
2020/12/26 04:51:33;;;;;;;16.83;8.98;;;4.10;99.90;;;;;;5016981;28;20054;-66
2020/12/26 04:54:25;;;;;;;15.63;9.80;;;4.10;99.90;;;;;;5016747;28;20515;-66
2020/12/26 04:56:54;;;;;;;14.02;8.63;;;4.10;99.90;;;;;;4996750;28;20055;-66
2020/12/26 04:59:21;;;;;;;14.87;9.70;;;4.10;99.90;;;;;;4996763;28;20508;-66
2020/12/26 05:01:48;;;;;;;12.80;7.97;;;4.20;99.90;;;;;;4996831;28;20050;-66
2020/12/26 05:04:15;;;;;;;14.63;9.02;;;4.00;99.90;;;;;;5014780;28;20054;-66
2020/12/26 05:06:51;;;;;;;14.60;8.73;;;4.10;99.90;;;;;;5016158;28;20108;-66
2020/12/26 05:09:19;;;;;;;13.63;8.10;;;4.20;99.90;;;;;;5016122;28;20486;-66
2020/12/26 05:11:54;;;;;;;14.27;8.25;;;4.00;99.90;;;;;;5016761;28;20495;-66
2020/12/26 05:14:21;;;;;;;14.95;8.43;;;4.20;99.90;;;;;;5016567;28;20053;-66
2020/12/26 05:16:48;;;;;;;13.90;8.00;;;4.30;99.90;;;;;;5016521;28;20472;-66
2020/12/26 05:19:14;;;;;;;13.77;8.30;;;4.40;99.90;;;;;;5016478;28;20049;-66
2020/12/26 05:21:41;;;;;;;12.68;8.23;;;4.40;99.90;;;;;;5015465;28;20050;-66
2020/12/26 05:24:09;;;;;;;15.25;8.48;;;4.30;99.90;;;;;;5015596;28;20078;-66
2020/12/26 05:26:41;;;;;;;14.82;9.23;;;4.40;99.90;;;;;;5016636;28;20053;-66
2020/12/26 05:29:08;;;;;;;11.10;8.05;;;4.40;99.90;;;;;;5016552;28;20089;-66
2020/12/26 05:31:53;;;;;;;13.98;9.13;;;4.40;99.90;;;;;;5016444;28;20053;-66
2020/12/26 05:34:20;;;;;;;12.18;8.68;;;4.30;99.90;;;;;;5015744;28;20050;-66
2020/12/26 05:36:46;;;;;;;18.75;10.30;;;4.40;99.90;;;;;;5015976;28;20443;-66
2020/12/26 05:39:16;;;;;;;15.63;10.27;;;4.30;99.90;;;;;;5015745;28;20081;-66
2020/12/26 05:41:45;;;;;;;14.27;10.07;;;4.30;99.90;;;;;;5015397;28;20437;-65
2020/12/26 05:44:13;;;;;;;15.30;11.13;;;4.40;99.90;;;;;;5015301;28;20085;-66
2020/12/26 05:46:53;;;;;;;16.25;11.48;;;4.50;99.90;;;;;;5015092;28;20057;-66
2020/12/26 05:49:28;;;;;;;17.70;12.05;;;4.50;99.90;;;;;;5015024;28;20053;-65
2020/12/26 05:51:58;;;;;;;19.50;12.68;;;4.50;99.90;;;;;;5015209;28;20139;-66
2020/12/26 05:54:25;;;;;;;17.00;12.18;;;4.60;99.90;;;;;;5015375;28;20045;-66
2020/12/26 05:57:08;;;;;;;17.65;12.73;;;4.60;99.90;;;;;;5015612;28;20065;-66
2020/12/26 05:59:36;;;;;;;17.90;13.07;;;4.60;99.90;;;;;;5015475;28;20803;-66
2020/12/26 06:02:21;;;;;;;20.40;13.25;;;4.70;99.90;;;;;;5014478;28;20139;-66
2020/12/26 06:05:03;;;;;;;21.67;12.63;;;4.70;99.90;;;;;;5014984;28;20107;-65
2020/12/26 06:07:32;;;;;;;20.58;13.52;;;4.70;99.90;;;;;;5013667;28;20065;-65
2020/12/26 06:10:01;;;;;;;20.33;13.00;;;4.50;99.90;;;;;;5015499;28;20108;-65
2020/12/26 06:12:29;;;;;;;18.27;13.52;;;4.60;99.90;;;;;;5015009;28;20053;-66
2020/12/26 06:14:59;;;;;;;22.73;12.57;;;4.40;99.90;;;;;;5014826;28;20081;-66
2020/12/26 06:17:27;;;;;;;19.30;12.55;;;4.50;99.90;;;;;;5015014;28;20045;-66
2020/12/26 06:19:56;;;;;;;15.82;12.48;;;4.50;99.90;;;;;;5015178;28;20077;-66
2020/12/26 06:22:23;;;;;;;21.83;12.75;;;4.60;99.90;;;;;;5014241;28;20046;-66
2020/12/26 06:24:50;;;;;;;18.60;12.38;;;4.60;99.90;;;;;;5014445;28;20101;-66
2020/12/26 06:27:16;;;;;;;20.48;12.82;;;4.30;99.90;;;;;;5014514;28;20089;-66
2020/12/26 06:29:44;;;;;;;15.15;11.43;;;4.50;99.90;;;;;;5014750;28;20052;-66
2020/12/26 06:32:12;;;;;;;17.33;11.77;;;4.60;99.90;;;;;;5014551;28;20103;-66
2020/12/26 06:34:41;;;;;;;14.80;12.27;;;4.50;99.90;;;;;;5014794;28;20550;-66
2020/12/26 06:37:10;;;;;;;19.67;11.43;;;4.50;99.90;;;;;;5014450;28;20138;-66
2020/12/26 06:39:37;;;;;;;19.53;12.67;;;4.40;99.90;;;;;;5014555;28;20483;-66
2020/12/26 06:42:16;;;;;;;15.68;12.15;;;4.40;99.90;;;;;;5014086;28;20472;-66
2020/12/26 06:44:43;;;;;;;18.58;11.35;;;4.50;99.90;;;;;;5013669;28;20089;-66
2020/12/26 06:47:33;;;;;;;20.63;12.38;;;4.70;99.90;;;;;;5014179;28;20050;-65
2020/12/26 06:50:20;;;;;;;19.92;12.43;;;4.70;99.90;;;;;;5014381;28;20158;-66
2020/12/26 06:52:47;;;;;;;20.55;14.80;;;4.80;99.90;;;;;;5014152;28;20384;-66
2020/12/26 06:55:39;;;;;;;17.20;11.80;;;4.90;99.90;;;;;;5014116;28;20046;-66
2020/12/26 06:58:09;;;;;;;16.10;11.90;;;4.90;99.90;;;;;;5014246;28;20053;-66
2020/12/26 07:00:36;;;;;;;15.45;11.52;;;4.90;99.90;;;;;;5014043;28;20050;-66
2020/12/26 07:03:28;;;;;;;17.45;12.38;;;5.00;99.90;;;;;;5013305;28;20055;-66
2020/12/26 07:05:56;;;;;;;16.80;13.00;;;4.90;99.90;;;;;;5013657;28;20054;-66
2020/12/26 07:08:31;;;;;;;16.95;11.35;;;4.90;99.90;;;;;;5013442;28;20129;-66
2020/12/26 07:11:00;;;;;;;15.30;11.85;;;4.70;99.90;;;;;;5014275;28;20049;-66
2020/12/26 07:13:50;;;;;;;17.50;11.10;;;4.70;99.90;;;;;;5014471;28;20093;-66
2020/12/26 07:16:45;;;;;;;15.70;11.23;;;4.90;99.90;;;;;;5014124;28;20049;-66
2020/12/26 07:19:33;;;;;;;16.33;10.15;;;4.90;99.90;;;;;;5013793;28;20062;-66
2020/12/26 07:22:03;;;;;;;14.93;11.43;;;4.80;99.90;;;;;;5013844;28;20100;-65
2020/12/26 07:24:35;;;;;;;11.70;9.30;;;4.80;99.90;;;;;;5013900;28;20085;-65
2020/12/26 07:27:30;;;;;;;18.67;11.98;;;4.80;99.90;;;;;;5013957;28;20479;-65
2020/12/26 07:30:01;;;;;;;17.52;11.82;;;4.80;99.90;;;;;;5013861;28;20085;-65
2020/12/26 07:32:50;;;;;;;19.52;12.45;;;4.80;99.90;;;;;;5013467;28;20057;-65
2020/12/26 07:35:30;;;;;;;20.65;13.88;;;4.90;99.90;;;;;;5013423;28;20081;-65
2020/12/26 07:38:00;;;;;;;17.48;11.93;;;4.80;99.90;;;;;;5013358;28;20050;-66
2020/12/26 07:40:28;;;;;;;15.73;11.40;;;4.80;99.90;;;;;;5013449;28;20053;-66
2020/12/26 07:42:56;;;;;;;19.05;11.73;;;4.80;99.90;;;;;;5013564;28;20045;-66
2020/12/26 07:45:25;;;;;;;17.20;12.35;;;4.80;99.90;;;;;;5012729;28;20061;-65
2020/12/26 07:47:54;;;;;;;18.92;12.60;;;4.80;99.90;;;;;;5013483;28;20726;-65
2020/12/26 07:50:23;;;;;;;19.13;13.18;;;4.60;99.90;;;;;;5013586;28;20050;-66
2020/12/26 07:52:51;;;;;;;18.67;13.25;;;4.70;99.90;;;;;;5013331;28;20065;-66
2020/12/26 07:55:18;;;;;;;18.80;13.20;;;4.80;99.90;;;;;;5012865;28;20046;-66
2020/12/26 07:57:45;;;;;;;17.88;13.55;;;4.90;99.90;;;;;;5013160;28;20097;-66
2020/12/26 08:00:22;;;;;;;19.58;13.35;;;4.90;99.90;;;;;;5013430;28;20049;-65
2020/12/26 08:02:50;;;;;;;19.42;12.23;;;4.80;99.90;;;;;;5013328;28;20133;-65
2020/12/26 08:05:21;;;;;;;19.63;12.38;;;4.70;99.90;;;;;;5012856;28;20064;-66
2020/12/26 08:07:48;;;;;;;20.65;13.07;;;4.70;99.90;;;;;;5012863;28;20403;-66
2020/12/26 08:10:15;;;;;;;18.45;12.88;;;4.70;99.90;;;;;;5013077;28;20050;-66
2020/12/26 08:12:49;;;;;;;18.52;12.52;;;4.70;99.90;;;;;;5014273;28;20132;-65
2020/12/26 08:15:20;;;;;;;17.27;11.75;;;4.80;99.90;;;;;;5017139;28;20054;-65
2020/12/26 08:17:48;;;;;;;16.20;10.85;;;4.90;99.90;;;;;;5017092;28;20054;-65
2020/12/26 08:20:15;;;;;;;18.27;12.65;;;4.70;99.90;;;;;;5017185;28;20057;-65
2020/12/26 08:22:43;;;;;;;17.02;11.90;;;4.90;99.90;;;;;;5017421;28;20128;-66
2020/12/26 08:25:13;;;;;;;15.32;11.15;;;5.00;99.90;;;;;;5015636;28;20103;-66
2020/12/26 08:27:40;;;;;;;18.40;11.82;;;5.10;99.90;;;;;;5017201;28;20426;-66
2020/12/26 08:30:10;;;;;;;15.25;10.27;;;5.10;99.90;;;;;;5016832;28;20442;-66
2020/12/26 08:32:41;;;;;;;;;;;5.00;99.90;;;;;;5017043;28;20049;-66
2020/12/26 08:35:11;;;;;;;12.75;8.40;;;4.90;99.90;;;;;;5016990;28;19922;-66
2020/12/26 08:37:39;;;;;;;15.02;9.93;;;4.90;99.90;;;;;;5017622;28;20499;-66
2020/12/26 08:40:14;;;;;;;14.30;9.63;;;4.90;99.90;;;;;;5017499;28;20100;-65
2020/12/26 08:42:41;;;;;;;15.63;10.68;;;5.00;99.90;;;;;;5016405;28;20408;-66
2020/12/26 08:45:31;;;;;;;11.65;7.95;;;5.10;99.90;;;;;;5017141;28;20050;-66
2020/12/26 08:48:01;;;;;;;16.90;10.93;;;5.10;99.90;;;;;;5015688;28;20128;-66
2020/12/26 08:50:29;;;;;;;13.50;9.55;;;5.20;99.90;;;;;;5016997;28;20046;-66
2020/12/26 08:53:13;;;;;;;14.77;10.10;;;5.10;99.90;;;;;;5017841;28;20341;-66
2020/12/26 08:55:47;;;;;;;15.32;8.70;;;5.00;99.90;;;;;;5011222;28;20631;-65
2020/12/26 08:58:28;;;;;;;14.88;9.70;;;5.20;99.90;;;;;;5016835;28;20046;-66
2020/12/26 09:00:59;;;;;;;12.55;8.65;;;5.20;99.90;;;;;;5016883;28;20092;-66
2020/12/26 09:03:27;;;;;;;12.93;7.88;;;5.20;99.90;;;;;;5016964;28;20056;-66
2020/12/26 09:05:55;;;;;;;13.93;8.95;;;5.20;99.90;;;;;;5016706;28;20419;-66
2020/12/26 09:08:30;;;;;;;13.75;8.55;;;5.20;99.90;;;;;;5016710;28;20050;-66
2020/12/26 09:11:03;;;;;;;12.07;7.70;;;5.10;99.90;;;;;;4997491;28;20057;-66
2020/12/26 09:13:38;;;;;;;8.65;6.50;;;5.20;99.90;;;;;;4997459;28;20050;-65
2020/12/26 09:16:09;;;;;;;11.82;7.50;;;5.20;99.90;;;;;;4998956;28;20050;-65
2020/12/26 09:18:42;;;;;;;12.70;7.05;;;5.40;99.90;;;;;;4997190;28;20057;-65
2020/12/26 09:21:19;;;;;;;10.18;6.72;;;5.30;99.90;;;;;;4997123;28;20054;-65
2020/12/26 09:23:46;;;;;;;9.75;6.95;;;5.30;99.90;;;;;;5000987;28;20457;-65
2020/12/26 09:26:15;;;;;;;11.35;7.05;;;5.30;99.90;;;;;;5016027;28;20050;-65
2020/12/26 09:28:50;;;;;;;10.85;7.30;;;5.30;99.90;;;;;;5014497;28;20421;-65
2020/12/26 09:31:18;;;;;;;11.02;7.00;;;5.30;99.90;;;;;;5015963;28;20045;-66
2020/12/26 09:33:45;;;;;;;9.68;6.90;;;5.40;99.90;;;;;;5015191;28;20050;-66
2020/12/26 09:36:13;;;;;;;9.48;6.38;;;5.40;99.90;;;;;;5015268;28;20340;-66
2020/12/26 09:38:40;;;;;;;7.20;5.32;;;5.60;99.90;;;;;;5015678;28;20050;-66
2020/12/26 09:41:17;;;;;;;9.20;5.68;;;6.20;99.90;;;;;;5015436;28;20180;-66
2020/12/26 09:43:45;;;;;;;9.57;5.53;;;6.20;99.90;;;;;;5015103;28;20403;-66
2020/12/26 09:46:12;;;;;;;6.80;4.88;;;6.70;99.90;;;;;;5015284;28;20085;-66
2020/12/26 09:48:39;;;;;;;4.90;4.20;;;7.40;99.90;;;;;;5015374;28;21009;-66
2020/12/26 09:51:11;;;;;;;5.70;4.18;;;7.80;99.90;;;;;;5015504;28;20081;-66
2020/12/26 09:53:37;;;;;;;7.32;4.43;;;7.80;99.90;;;;;;5015031;28;20053;-66
2020/12/26 09:56:07;;;;;;;6.35;4.47;;;7.40;99.90;;;;;;5015287;28;20050;-66
2020/12/26 09:58:38;;;;;;;6.22;4.70;;;7.20;99.90;;;;;;5015305;28;20129;-66
2020/12/26 10:01:05;;;;;;;5.13;4.22;;;6.70;99.90;;;;;;5015391;28;20426;-66
2020/12/26 10:03:32;;;;;;;6.10;3.97;;;6.30;99.90;;;;;;5015232;28;20545;-66
2020/12/26 10:05:58;;;;;;;6.68;5.05;;;5.80;99.90;;;;;;5015166;28;20053;-66
2020/12/26 10:08:25;;;;;;;4.93;3.33;;;6.00;99.90;;;;;;5015407;28;20050;-66
2020/12/26 10:10:51;;;;;;;6.75;4.43;;;6.10;99.90;;;;;;5015006;28;20514;-66
2020/12/26 10:13:18;;;;;;;6.43;4.60;;;6.10;99.90;;;;;;5014647;28;20541;-66
2020/12/26 10:15:45;;;;;;;7.95;5.05;;;6.00;99.90;;;;;;5015235;28;20077;-66
2020/12/26 10:18:12;;;;;;;7.28;5.00;;;6.00;99.90;;;;;;5014749;28;20085;-66
2020/12/26 10:20:38;;;;;;;9.05;4.70;;;6.10;99.90;;;;;;5014898;28;20085;-66
2020/12/26 10:23:05;;;;;;;9.05;5.57;;;6.00;99.90;;;;;;5014689;28;20049;-66
2020/12/26 10:25:32;;;;;;;6.75;4.80;;;5.90;99.90;;;;;;5013548;28;20045;-65
2020/12/26 10:27:58;;;;;;;8.77;5.00;;;5.90;99.90;;;;;;5014692;28;20486;-66
2020/12/26 10:30:24;;;;;;;7.22;5.00;;;6.00;99.90;;;;;;5014929;28;20058;-66
2020/12/26 10:32:55;;;;;;;8.05;5.07;;;5.70;99.90;;;;;;5014722;28;20053;-65
2020/12/26 10:35:21;;;;;;;6.78;5.70;;;6.00;99.90;;;;;;5014668;28;20065;-65
2020/12/26 10:37:48;;;;;;;9.73;5.20;;;5.80;99.90;;;;;;5014700;28;20357;-66
2020/12/26 10:40:15;;;;;;;9.93;5.10;;;6.10;99.90;;;;;;5014747;28;20458;-65
2020/12/26 10:42:41;;;;;;;6.47;4.40;;;5.90;99.90;;;;;;5014167;28;20062;-66
2020/12/26 10:45:08;;;;;;;9.35;5.32;;;5.70;99.90;;;;;;5014260;28;20053;-65
2020/12/26 10:47:35;;;;;;;10.07;6.18;;;5.70;99.90;;;;;;5014205;28;20097;-66
2020/12/26 10:50:05;;;;;;;12.20;6.80;;;6.00;99.90;;;;;;5014317;28;20054;-66
2020/12/26 10:52:32;;;;;;;8.80;5.68;;;6.20;99.90;;;;;;5014325;28;20553;-65
2020/12/26 10:54:59;;;;;;;8.57;7.57;;;6.70;99.90;;;;;;5013939;28;20125;-66
2020/12/26 10:57:25;;;;;;;7.35;6.60;;;7.90;99.90;;;;;;5013605;28;20113;-66
2020/12/26 10:59:52;;;;;;;8.13;5.22;;;8.40;99.90;;;;;;5013917;28;20077;-66
2020/12/26 11:02:18;;;;;;;6.90;4.85;;;8.40;99.90;;;;;;5014360;28;20058;-66
2020/12/26 11:04:45;;;;;;;7.93;4.03;;;7.70;99.90;;;;;;5013821;28;20057;-66
2020/12/26 11:07:13;;;;;;;5.93;4.60;;;7.60;99.90;;;;;;5013920;28;20085;-66
2020/12/26 11:09:42;;;;;;;6.38;4.95;;;7.20;99.90;;;;;;5013862;28;20486;-66
2020/12/26 11:12:08;;;;;;;8.55;5.22;;;7.20;99.90;;;;;;5013437;28;20057;-66
2020/12/26 11:14:35;;;;;;;6.75;5.53;;;7.50;99.90;;;;;;5013869;28;20054;-66
2020/12/26 11:17:01;;;;;;;10.60;9.70;;;7.80;99.90;;;;;;5013950;28;20421;-66
2020/12/26 11:19:28;;;;;;;8.15;5.45;;;8.30;99.90;;;;;;5013837;28;20459;-66
2020/12/26 11:21:55;;;;;;;6.82;4.70;;;8.20;99.90;;;;;;5013751;28;20463;-65
2020/12/26 11:24:23;;;;;;;8.80;8.00;;;7.50;99.90;;;;;;5011327;28;20054;-66
2020/12/26 11:26:50;;;;;;;10.38;9.25;;;7.70;99.90;;;;;;5012667;28;20084;-66
2020/12/26 11:29:16;;;;;;;8.50;5.18;;;7.90;99.90;;;;;;5013409;28;20049;-66
2020/12/26 11:31:43;;;;;;;9.85;9.05;;;8.30;99.90;;;;;;5012832;28;20095;-66
2020/12/26 11:34:11;;;;;;;12.32;11.43;;;7.70;99.90;;;;;;5012713;28;20084;-66
2020/12/26 11:36:39;;;;;;;12.50;11.60;;;8.20;99.90;;;;;;5012980;28;20191;-67
2020/12/26 11:39:05;;;;;;;11.20;10.10;;;8.50;99.90;;;;;;5013476;28;20057;-66
2020/12/26 11:41:33;;;;;;;13.93;12.88;;;8.70;99.90;;;;;;5011963;28;20529;-66
2020/12/26 11:44:00;;;;;;;27.45;26.00;;;9.10;99.90;;;;;;5012447;28;20112;-66
2020/12/26 11:46:28;;;;;;;13.32;12.52;;;8.90;99.90;;;;;;5011372;28;20513;-66
2020/12/26 11:48:54;;;;;;;16.17;15.23;;;8.80;99.90;;;;;;5012003;28;20042;-66
2020/12/26 11:51:21;;;;;;;24.92;23.42;;;9.10;99.90;;;;;;5012886;28;20088;-66
2020/12/26 11:53:47;;;;;;;17.85;16.85;;;9.90;99.90;;;;;;5013273;28;20534;-66
2020/12/26 11:56:16;;;;;;;25.83;24.45;;;10.50;99.90;;;;;;5000402;28;20049;-66
2020/12/26 11:58:44;;;;;;;24.77;23.48;;;11.00;99.90;;;;;;5012837;28;20050;-66
2020/12/26 12:01:11;;;;;;;30.90;29.35;;;10.50;99.90;;;;;;5013580;28;20081;-66
2020/12/26 12:03:38;;;;;;;20.23;19.27;;;10.40;99.90;;;;;;5013220;28;20092;-66
2020/12/26 12:06:05;;;;;;;11.20;10.40;;;10.50;99.90;;;;;;5012730;28;20123;-66
2020/12/26 12:08:32;;;;;;;4.07;3.67;;;9.50;99.90;;;;;;5012945;28;20042;-66
2020/12/26 12:10:58;;;;;;;5.32;3.50;;;9.70;99.90;;;;;;5013241;28;20522;-66
2020/12/26 12:13:25;;;;;;;6.82;4.95;;;9.80;99.90;;;;;;5012769;28;20045;-66
2020/12/26 12:15:52;;;;;;;4.75;3.67;;;10.00;99.90;;;;;;5013008;28;20054;-66
2020/12/26 12:18:19;;;;;;;7.07;3.65;;;9.10;99.90;;;;;;5012946;28;20079;-66
2020/12/26 12:20:46;;;;;;;5.80;3.60;;;8.20;99.90;;;;;;5013218;28;20096;-66
2020/12/26 12:23:12;;;;;;;4.95;3.53;;;7.40;99.90;;;;;;5013562;28;20061;-66
2020/12/26 12:25:40;;;;;;;6.18;4.40;;;7.00;99.90;;;;;;5012476;28;20411;-66
2020/12/26 12:28:06;;;;;;;7.97;3.60;;;7.10;99.90;;;;;;5013353;28;20054;-66
2020/12/26 12:30:33;;;;;;;3.95;2.88;;;7.00;99.90;;;;;;5012889;28;20092;-66
2020/12/26 12:33:00;;;;;;;5.40;3.35;;;7.30;99.90;;;;;;5012914;28;20414;-66
2020/12/26 12:35:27;;;;;;;5.47;3.17;;;7.10;99.90;;;;;;5012587;28;20081;-66
2020/12/26 12:37:53;;;;;;;6.40;3.28;;;7.20;99.90;;;;;;5013456;28;20057;-66
2020/12/26 12:40:20;;;;;;;4.90;3.35;;;6.80;99.90;;;;;;5013721;28;20057;-66
2020/12/26 12:42:47;;;;;;;4.75;3.15;;;6.50;99.90;;;;;;5013149;28;20058;-66
2020/12/26 12:45:14;;;;;;;4.78;3.22;;;6.40;99.90;;;;;;5013438;28;20050;-66
2020/12/26 12:47:41;;;;;;;5.10;3.03;;;6.30;99.90;;;;;;5011879;28;20065;-66
2020/12/26 12:50:09;;;;;;;6.03;2.42;;;6.30;99.90;;;;;;5012357;28;20403;-66
2020/12/26 12:52:36;;;;;;;5.38;3.33;;;6.30;99.90;;;;;;5012830;28;20084;-66